createdAt,value
2018-12-30T00:00:23.882Z,1020.44
2018-12-30T00:01:23.861Z,1020.46
2018-12-30T00:02:24.007Z,1020.48
2018-12-30T00:03:23.800Z,1020.43
2018-12-30T00:04:23.790Z,1020.48
2018-12-30T00:05:23.778Z,1020.53
2018-12-30T00:06:23.783Z,1020.55
2018-12-30T00:07:23.790Z,1020.55
2018-12-30T00:08:23.737Z,1020.60
2018-12-30T00:09:23.729Z,1020.64
2018-12-30T00:10:23.721Z,1020.62
2018-12-30T00:11:23.725Z,1020.78
2018-12-30T00:12:23.745Z,1020.80
2018-12-30T00:13:23.694Z,1020.76
2018-12-30T00:14:23.700Z,1020.86
2018-12-30T00:15:23.700Z,1020.93
2018-12-30T00:16:23.732Z,1020.92
2018-12-30T00:17:23.687Z,1020.94
2018-12-30T00:18:23.660Z,1020.90
2018-12-30T00:19:23.616Z,1020.93
2018-12-30T00:20:23.607Z,1020.94
2018-12-30T00:21:23.637Z,1021.05
2018-12-30T00:22:23.646Z,1020.96
2018-12-30T00:23:23.643Z,1020.98
2018-12-30T00:24:23.587Z,1021.07
2018-12-30T00:25:23.557Z,1021.06
2018-12-30T00:26:23.620Z,1021.02
2018-12-30T00:27:23.543Z,1021.01
2018-12-30T00:28:23.522Z,1021.05
2018-12-30T00:29:23.555Z,1021.14
2018-12-30T00:30:23.499Z,1021.10
2018-12-30T00:31:23.487Z,1021.11
2018-12-30T00:32:23.469Z,1021.07
2018-12-30T00:33:23.484Z,1021.04
2018-12-30T00:34:23.449Z,1021.12
2018-12-30T00:35:23.455Z,1021.10
2018-12-30T00:36:23.431Z,1021.15
2018-12-30T00:37:23.419Z,1021.12
2018-12-30T00:38:23.411Z,1021.23
2018-12-30T00:39:23.394Z,1021.24
2018-12-30T00:40:23.403Z,1021.14
2018-12-30T00:41:23.443Z,1021.13
2018-12-30T00:42:23.366Z,1021.20
2018-12-30T00:43:23.355Z,1021.16
2018-12-30T00:44:23.346Z,1021.24
2018-12-30T00:45:23.335Z,1021.26
2018-12-30T00:46:23.355Z,1021.24
2018-12-30T00:47:23.329Z,1021.28
2018-12-30T00:48:23.300Z,1021.34
2018-12-30T00:49:23.280Z,1021.35
2018-12-30T00:50:23.275Z,1021.35
2018-12-30T00:51:23.263Z,1021.41
2018-12-30T00:52:23.275Z,1021.44
2018-12-30T00:53:23.275Z,1021.39
2018-12-30T00:54:23.234Z,1021.50
2018-12-30T00:55:23.235Z,1021.49
2018-12-30T00:56:23.204Z,1021.52
2018-12-30T00:57:23.199Z,1021.52
2018-12-30T00:58:23.221Z,1021.52
2018-12-30T00:59:23.176Z,1021.52
2018-12-30T01:00:23.179Z,1021.58
2018-12-30T01:01:23.150Z,1021.63
2018-12-30T01:02:23.147Z,1021.54
2018-12-30T01:03:23.136Z,1021.65
2018-12-30T01:04:23.128Z,1021.66
2018-12-30T01:05:23.113Z,1021.62
2018-12-30T01:06:23.093Z,1021.65
2018-12-30T01:07:23.085Z,1021.68
2018-12-30T01:08:23.081Z,1021.73
2018-12-30T01:09:23.128Z,1021.72
2018-12-30T01:10:23.093Z,1021.77
2018-12-30T01:11:23.044Z,1021.79
2018-12-30T01:12:23.065Z,1021.85
2018-12-30T01:13:23.076Z,1021.80
2018-12-30T01:14:23.010Z,1021.77
2018-12-30T01:15:23.008Z,1021.79
2018-12-30T01:16:22.989Z,1021.88
2018-12-30T01:17:22.990Z,1021.88
2018-12-30T01:18:22.969Z,1021.82
2018-12-30T01:19:22.965Z,1021.85
2018-12-30T01:20:22.960Z,1021.95
2018-12-30T01:21:25.162Z,1021.99
2018-12-30T01:22:22.938Z,1022.02
2018-12-30T01:23:22.922Z,1022.04
2018-12-30T01:24:22.923Z,1022.08
2018-12-30T01:25:22.887Z,1022.09
2018-12-30T01:26:22.877Z,1022.01
2018-12-30T01:27:22.930Z,1022.08
2018-12-30T01:28:22.902Z,1022.09
2018-12-30T01:29:22.854Z,1022.04
2018-12-30T01:30:22.842Z,1022.01
2018-12-30T01:31:22.815Z,1021.91
2018-12-30T01:32:22.825Z,1022.02
2018-12-30T01:33:22.803Z,1022.01
2018-12-30T01:34:22.806Z,1022.01
2018-12-30T01:35:22.790Z,1022.01
2018-12-30T01:36:22.756Z,1022.03
2018-12-30T01:37:22.754Z,1021.98
2018-12-30T01:38:22.758Z,1021.99
2018-12-30T01:39:22.748Z,1022.05
2018-12-30T01:40:22.722Z,1021.99
2018-12-30T01:41:22.703Z,1021.99
2018-12-30T01:42:22.700Z,1022.03
2018-12-30T01:43:22.679Z,1022.01
2018-12-30T01:44:22.733Z,1022.01
2018-12-30T01:45:22.660Z,1022.03
2018-12-30T01:46:22.677Z,1022.15
2018-12-30T01:47:22.641Z,1022.16
2018-12-30T01:48:22.621Z,1022.17
2018-12-30T01:49:22.627Z,1022.20
2018-12-30T01:50:22.615Z,1022.24
2018-12-30T01:51:22.590Z,1022.26
2018-12-30T01:52:22.594Z,1022.28
2018-12-30T01:53:22.575Z,1022.40
2018-12-30T01:54:22.555Z,1022.40
2018-12-30T01:55:22.691Z,1022.41
2018-12-30T01:56:22.541Z,1022.45
2018-12-30T01:57:22.519Z,1022.44
2018-12-30T01:58:22.539Z,1022.47
2018-12-30T01:59:22.496Z,1022.49
2018-12-30T02:00:22.485Z,1022.55
2018-12-30T02:01:22.520Z,1022.59
2018-12-30T02:02:22.468Z,1022.61
2018-12-30T02:03:22.480Z,1022.64
2018-12-30T02:04:22.443Z,1022.62
2018-12-30T02:05:22.434Z,1022.68
2018-12-30T02:06:22.545Z,1022.67
2018-12-30T02:07:22.486Z,1022.68
2018-12-30T02:08:22.396Z,1022.68
2018-12-30T02:09:22.403Z,1022.76
2018-12-30T02:10:22.400Z,1022.69
2018-12-30T02:11:22.367Z,1022.68
2018-12-30T02:12:22.379Z,1022.73
2018-12-30T02:13:22.392Z,1022.75
2018-12-30T02:14:22.348Z,1022.78
2018-12-30T02:15:22.319Z,1022.84
2018-12-30T02:16:22.314Z,1022.83
2018-12-30T02:17:22.336Z,1022.84
2018-12-30T02:18:22.360Z,1022.87
2018-12-30T02:19:22.277Z,1022.86
2018-12-30T02:20:22.265Z,1022.88
2018-12-30T02:21:22.258Z,1022.89
2018-12-30T02:22:22.264Z,1022.92
2018-12-30T02:23:22.324Z,1022.95
2018-12-30T02:24:22.243Z,1022.99
2018-12-30T02:25:22.216Z,1022.94
2018-12-30T02:26:22.214Z,1022.92
2018-12-30T02:27:22.189Z,1022.87
2018-12-30T02:28:22.174Z,1022.93
2018-12-30T02:29:22.170Z,1022.83
2018-12-30T02:30:22.192Z,1022.82
2018-12-30T02:31:22.143Z,1022.87
2018-12-30T02:32:22.156Z,1022.89
2018-12-30T02:33:22.148Z,1022.93
2018-12-30T02:34:22.107Z,1023.01
2018-12-30T02:35:22.131Z,1023.04
2018-12-30T02:36:22.093Z,1023.15
2018-12-30T02:37:22.105Z,1023.07
2018-12-30T02:38:22.071Z,1023.07
2018-12-30T02:39:22.092Z,1023.07
2018-12-30T02:40:22.077Z,1023.02
2018-12-30T02:41:22.052Z,1023.08
2018-12-30T02:42:22.021Z,1023.02
2018-12-30T02:43:22.035Z,1023.05
2018-12-30T02:44:22.008Z,1023.14
2018-12-30T02:45:21.999Z,1023.19
2018-12-30T02:46:21.993Z,1023.22
2018-12-30T02:47:21.976Z,1023.16
2018-12-30T02:48:21.959Z,1023.22
2018-12-30T02:49:21.965Z,1023.27
2018-12-30T02:50:21.927Z,1023.27
2018-12-30T02:51:21.955Z,1023.27
2018-12-30T02:52:21.942Z,1023.21
2018-12-30T02:53:21.921Z,1023.22
2018-12-30T02:54:21.938Z,1023.20
2018-12-30T02:55:21.870Z,1023.18
2018-12-30T02:56:21.872Z,1023.27
2018-12-30T02:57:21.945Z,1023.22
2018-12-30T02:58:21.862Z,1023.25
2018-12-30T02:59:21.861Z,1023.27
2018-12-30T03:00:21.816Z,1023.30
2018-12-30T03:01:21.824Z,1023.31
2018-12-30T03:02:21.798Z,1023.30
2018-12-30T03:03:21.833Z,1023.29
2018-12-30T03:04:21.849Z,1023.30
2018-12-30T03:05:21.790Z,1023.28
2018-12-30T03:06:21.779Z,1023.34
2018-12-30T03:07:21.773Z,1023.39
2018-12-30T03:08:21.728Z,1023.35
2018-12-30T03:09:21.737Z,1023.44
2018-12-30T03:10:21.708Z,1023.44
2018-12-30T03:11:21.693Z,1023.51
2018-12-30T03:12:21.685Z,1023.58
2018-12-30T03:13:21.716Z,1023.61
2018-12-30T03:14:21.662Z,1023.63
2018-12-30T03:15:21.682Z,1023.58
2018-12-30T03:16:21.655Z,1023.54
2018-12-30T03:17:21.639Z,1023.57
2018-12-30T03:18:21.616Z,1023.54
2018-12-30T03:19:21.633Z,1023.55
2018-12-30T03:20:21.601Z,1023.48
2018-12-30T03:21:21.624Z,1023.51
2018-12-30T03:22:21.570Z,1023.47
2018-12-30T03:23:21.577Z,1023.51
2018-12-30T03:24:21.566Z,1023.52
2018-12-30T03:25:21.536Z,1023.59
2018-12-30T03:26:21.528Z,1023.52
2018-12-30T03:27:21.515Z,1023.48
2018-12-30T03:28:21.508Z,1023.50
2018-12-30T03:29:21.523Z,1023.51
2018-12-30T03:30:21.513Z,1023.49
2018-12-30T03:31:21.503Z,1023.51
2018-12-30T03:32:21.458Z,1023.54
2018-12-30T03:33:21.465Z,1023.53
2018-12-30T03:34:21.442Z,1023.49
2018-12-30T03:35:21.424Z,1023.47
2018-12-30T03:36:21.434Z,1023.51
2018-12-30T03:37:21.401Z,1023.52
2018-12-30T03:38:21.418Z,1023.52
2018-12-30T03:39:21.382Z,1023.50
2018-12-30T03:40:21.370Z,1023.53
2018-12-30T03:41:21.376Z,1023.53
2018-12-30T03:42:21.393Z,1023.47
2018-12-30T03:43:21.338Z,1023.55
2018-12-30T03:44:21.342Z,1023.53
2018-12-30T03:45:21.399Z,1023.54
2018-12-30T03:46:21.304Z,1023.54
2018-12-30T03:47:21.318Z,1023.58
2018-12-30T03:48:21.288Z,1023.59
2018-12-30T03:49:21.280Z,1023.61
2018-12-30T03:50:21.263Z,1023.63
2018-12-30T03:51:21.254Z,1023.64
2018-12-30T03:52:21.264Z,1023.63
2018-12-30T03:53:21.235Z,1023.61
2018-12-30T03:54:21.242Z,1023.69
2018-12-30T03:55:21.213Z,1023.73
2018-12-30T03:56:21.191Z,1023.64
2018-12-30T03:57:21.235Z,1023.68
2018-12-30T03:58:21.221Z,1023.73
2018-12-30T03:59:21.157Z,1023.75
2018-12-30T04:00:21.171Z,1023.82
2018-12-30T04:01:21.141Z,1023.84
2018-12-30T04:02:21.160Z,1023.84
2018-12-30T04:03:21.128Z,1023.81
2018-12-30T04:04:21.123Z,1023.82
2018-12-30T04:05:21.096Z,1023.82
2018-12-30T04:06:21.079Z,1023.85
2018-12-30T04:07:21.098Z,1023.90
2018-12-30T04:08:21.085Z,1023.88
2018-12-30T04:09:21.052Z,1023.89
2018-12-30T04:10:21.032Z,1023.89
2018-12-30T04:11:21.036Z,1023.92
2018-12-30T04:12:21.015Z,1023.94
2018-12-30T04:13:21.003Z,1023.98
2018-12-30T04:14:21.006Z,1024.00
2018-12-30T04:15:20.981Z,1024.02
2018-12-30T04:16:21.000Z,1023.99
2018-12-30T04:17:20.983Z,1024.03
2018-12-30T04:18:20.945Z,1024.00
2018-12-30T04:19:20.957Z,1024.05
2018-12-30T04:20:20.946Z,1024.10
2018-12-30T04:21:20.914Z,1024.08
2018-12-30T04:22:20.907Z,1024.04
2018-12-30T04:23:20.972Z,1024.09
2018-12-30T04:24:20.900Z,1024.12
2018-12-30T04:25:20.879Z,1024.10
2018-12-30T04:26:20.863Z,1024.13
2018-12-30T04:27:20.877Z,1024.13
2018-12-30T04:28:20.845Z,1024.14
2018-12-30T04:29:20.826Z,1024.12
2018-12-30T04:30:20.837Z,1024.17
2018-12-30T04:31:20.827Z,1024.19
2018-12-30T04:32:20.819Z,1024.17
2018-12-30T04:33:20.807Z,1024.24
2018-12-30T04:34:20.788Z,1024.26
2018-12-30T04:35:20.762Z,1024.28
2018-12-30T04:36:20.747Z,1024.27
2018-12-30T04:37:20.734Z,1024.22
2018-12-30T04:38:20.739Z,1024.19
2018-12-30T04:39:20.732Z,1024.16
2018-12-30T04:40:20.716Z,1024.24
2018-12-30T04:41:20.706Z,1024.37
2018-12-30T04:42:20.681Z,1024.44
2018-12-30T04:43:20.670Z,1024.44
2018-12-30T04:44:20.662Z,1024.35
2018-12-30T04:45:20.660Z,1024.28
2018-12-30T04:46:20.662Z,1024.31
2018-12-30T04:47:20.632Z,1024.29
2018-12-30T04:48:20.617Z,1024.26
2018-12-30T04:49:20.642Z,1024.25
2018-12-30T04:50:20.615Z,1024.23
2018-12-30T04:51:20.589Z,1024.19
2018-12-30T04:52:25.667Z,1024.21
2018-12-30T04:53:21.565Z,1024.23
2018-12-30T04:54:20.547Z,1024.29
2018-12-30T04:55:20.541Z,1024.31
2018-12-30T04:56:20.548Z,1024.23
2018-12-30T04:57:20.518Z,1024.19
2018-12-30T04:58:20.504Z,1024.14
2018-12-30T04:59:20.515Z,1024.24
2018-12-30T05:00:20.480Z,1024.31
2018-12-30T05:01:20.491Z,1024.33
2018-12-30T05:02:20.501Z,1024.27
2018-12-30T05:03:20.448Z,1024.28
2018-12-30T05:04:20.457Z,1024.40
2018-12-30T05:05:20.449Z,1024.39
2018-12-30T05:06:20.420Z,1024.37
2018-12-30T05:07:20.413Z,1024.33
2018-12-30T05:08:20.425Z,1024.34
2018-12-30T05:09:20.382Z,1024.37
2018-12-30T05:10:20.372Z,1024.32
2018-12-30T05:11:20.375Z,1024.24
2018-12-30T05:12:20.344Z,1024.24
2018-12-30T05:13:20.409Z,1024.26
2018-12-30T05:14:20.324Z,1024.38
2018-12-30T05:15:20.324Z,1024.43
2018-12-30T05:16:20.306Z,1024.52
2018-12-30T05:17:20.315Z,1024.63
2018-12-30T05:18:20.279Z,1024.63
2018-12-30T05:19:20.305Z,1024.62
2018-12-30T05:20:20.256Z,1024.70
2018-12-30T05:21:20.249Z,1024.74
2018-12-30T05:22:20.267Z,1024.70
2018-12-30T05:23:20.244Z,1024.67
2018-12-30T05:24:20.230Z,1024.68
2018-12-30T05:25:20.218Z,1024.77
2018-12-30T05:26:20.191Z,1024.87
2018-12-30T05:27:20.181Z,1024.88
2018-12-30T05:28:20.186Z,1024.68
2018-12-30T05:29:20.176Z,1024.66
2018-12-30T05:30:20.145Z,1024.66
2018-12-30T05:31:20.177Z,1024.73
2018-12-30T05:32:20.165Z,1024.74
2018-12-30T05:33:20.123Z,1024.73
2018-12-30T05:34:20.105Z,1024.68
2018-12-30T05:35:20.089Z,1024.63
2018-12-30T05:36:20.123Z,1024.63
2018-12-30T05:37:20.090Z,1024.64
2018-12-30T05:38:20.056Z,1024.75
2018-12-30T05:39:20.058Z,1024.69
2018-12-30T05:40:20.031Z,1024.69
2018-12-30T05:41:20.031Z,1024.65
2018-12-30T05:42:20.018Z,1024.72
2018-12-30T05:43:20.031Z,1024.74
2018-12-30T05:44:19.995Z,1024.76
2018-12-30T05:45:19.987Z,1024.82
2018-12-30T05:46:19.971Z,1024.78
2018-12-30T05:47:19.970Z,1024.73
2018-12-30T05:48:19.946Z,1024.76
2018-12-30T05:49:19.950Z,1024.78
2018-12-30T05:50:19.929Z,1024.76
2018-12-30T05:51:19.918Z,1024.76
2018-12-30T05:52:19.901Z,1024.86
2018-12-30T05:53:19.895Z,1024.92
2018-12-30T05:54:19.883Z,1024.92
2018-12-30T05:55:19.889Z,1025.00
2018-12-30T05:56:19.861Z,1025.05
2018-12-30T05:57:19.855Z,1025.02
2018-12-30T05:58:19.842Z,1025.06
2018-12-30T05:59:19.820Z,1025.07
2018-12-30T06:00:19.834Z,1025.13
2018-12-30T06:01:19.800Z,1025.08
2018-12-30T06:02:19.837Z,1025.07
2018-12-30T06:03:19.777Z,1025.05
2018-12-30T06:04:19.772Z,1025.09
2018-12-30T06:05:19.768Z,1025.09
2018-12-30T06:06:19.782Z,1025.18
2018-12-30T06:07:19.732Z,1025.23
2018-12-30T06:08:19.752Z,1025.28
2018-12-30T06:09:19.707Z,1025.27
2018-12-30T06:10:19.701Z,1025.29
2018-12-30T06:11:19.691Z,1025.33
2018-12-30T06:12:19.676Z,1025.35
2018-12-30T06:13:19.713Z,1025.37
2018-12-30T06:14:19.688Z,1025.37
2018-12-30T06:15:19.646Z,1025.40
2018-12-30T06:16:19.652Z,1025.34
2018-12-30T06:17:19.624Z,1025.38
2018-12-30T06:18:19.609Z,1025.42
2018-12-30T06:19:19.596Z,1025.33
2018-12-30T06:20:19.602Z,1025.32
2018-12-30T06:21:19.571Z,1025.37
2018-12-30T06:22:19.626Z,1025.35
2018-12-30T06:23:19.562Z,1025.35
2018-12-30T06:24:19.541Z,1025.30
2018-12-30T06:25:19.552Z,1025.32
2018-12-30T06:26:19.516Z,1025.37
2018-12-30T06:27:19.510Z,1025.38
2018-12-30T06:28:19.557Z,1025.42
2018-12-30T06:29:19.478Z,1025.49
2018-12-30T06:30:19.498Z,1025.50
2018-12-30T06:31:19.483Z,1025.53
2018-12-30T06:32:19.456Z,1025.54
2018-12-30T06:33:19.452Z,1025.55
2018-12-30T06:34:19.426Z,1025.62
2018-12-30T06:35:19.418Z,1025.58
2018-12-30T06:36:19.423Z,1025.52
2018-12-30T06:37:19.412Z,1025.56
2018-12-30T06:38:19.382Z,1025.60
2018-12-30T06:39:19.370Z,1025.64
2018-12-30T06:40:19.362Z,1025.63
2018-12-30T06:41:19.360Z,1025.66
2018-12-30T06:42:19.403Z,1025.71
2018-12-30T06:43:19.350Z,1025.72
2018-12-30T06:44:19.364Z,1025.68
2018-12-30T06:45:19.316Z,1025.63
2018-12-30T06:46:19.337Z,1025.66
2018-12-30T06:47:19.280Z,1025.66
2018-12-30T06:48:19.273Z,1025.67
2018-12-30T06:49:19.276Z,1025.66
2018-12-30T06:50:19.253Z,1025.63
2018-12-30T06:51:19.238Z,1025.55
2018-12-30T06:52:19.237Z,1025.54
2018-12-30T06:53:19.221Z,1025.57
2018-12-30T06:54:19.202Z,1025.59
2018-12-30T06:55:19.216Z,1025.64
2018-12-30T06:56:19.181Z,1025.63
2018-12-30T06:57:19.173Z,1025.62
2018-12-30T06:58:19.162Z,1025.67
2018-12-30T06:59:19.150Z,1025.74
2018-12-30T07:00:19.146Z,1025.71
2018-12-30T07:01:19.162Z,1025.68
2018-12-30T07:02:19.119Z,1025.68
2018-12-30T07:03:19.118Z,1025.60
2018-12-30T07:04:19.092Z,1025.65
2018-12-30T07:05:19.078Z,1025.61
2018-12-30T07:06:19.069Z,1025.60
2018-12-30T07:07:19.073Z,1025.55
2018-12-30T07:08:19.047Z,1025.51
2018-12-30T07:09:19.034Z,1025.48
2018-12-30T07:10:19.029Z,1025.47
2018-12-30T07:11:19.033Z,1025.48
2018-12-30T07:12:19.003Z,1025.47
2018-12-30T07:13:19.001Z,1025.47
2018-12-30T07:14:19.003Z,1025.51
2018-12-30T07:15:18.972Z,1025.54
2018-12-30T07:16:18.965Z,1025.52
2018-12-30T07:17:18.943Z,1025.61
2018-12-30T07:18:18.959Z,1025.63
2018-12-30T07:19:18.925Z,1025.64
2018-12-30T07:20:18.928Z,1025.63
2018-12-30T07:21:18.905Z,1025.67
2018-12-30T07:22:18.887Z,1025.65
2018-12-30T07:23:18.904Z,1025.71
2018-12-30T07:24:18.873Z,1025.71
2018-12-30T07:25:18.947Z,1025.81
2018-12-30T07:26:18.873Z,1025.74
2018-12-30T07:27:18.834Z,1025.75
2018-12-30T07:28:18.830Z,1025.83
2018-12-30T07:29:18.885Z,1025.87
2018-12-30T07:30:18.813Z,1025.85
2018-12-30T07:31:18.790Z,1025.84
2018-12-30T07:32:18.896Z,1025.87
2018-12-30T07:33:18.768Z,1025.85
2018-12-30T07:34:18.755Z,1025.85
2018-12-30T07:35:18.748Z,1025.85
2018-12-30T07:36:18.959Z,1025.85
2018-12-30T07:37:18.724Z,1025.81
2018-12-30T07:38:18.709Z,1025.88
2018-12-30T07:39:18.703Z,1025.90
2018-12-30T07:40:18.689Z,1025.91
2018-12-30T07:41:18.682Z,1025.89
2018-12-30T07:42:18.685Z,1025.90
2018-12-30T07:43:18.651Z,1025.85
2018-12-30T07:44:18.639Z,1025.80
2018-12-30T07:45:18.648Z,1025.79
2018-12-30T07:46:18.621Z,1025.82
2018-12-30T07:47:18.623Z,1025.79
2018-12-30T07:48:18.625Z,1025.76
2018-12-30T07:49:18.596Z,1025.78
2018-12-30T07:50:18.573Z,1025.81
2018-12-30T07:51:18.573Z,1025.81
2018-12-30T07:52:18.572Z,1025.78
2018-12-30T07:53:18.575Z,1025.74
2018-12-30T07:54:18.544Z,1025.77
2018-12-30T07:55:18.518Z,1025.77
2018-12-30T07:56:18.508Z,1025.76
2018-12-30T07:57:18.495Z,1025.81
2018-12-30T07:58:18.488Z,1025.79
2018-12-30T07:59:18.530Z,1025.75
2018-12-30T08:00:18.462Z,1025.72
2018-12-30T08:01:18.457Z,1025.78
2018-12-30T08:02:18.447Z,1025.77
2018-12-30T08:03:18.533Z,1025.79
2018-12-30T08:04:18.416Z,1025.81
2018-12-30T08:05:18.423Z,1025.84
2018-12-30T08:06:18.398Z,1025.87
2018-12-30T08:07:18.385Z,1025.83
2018-12-30T08:08:18.375Z,1025.87
2018-12-30T08:09:18.365Z,1025.94
2018-12-30T08:10:18.387Z,1025.93
2018-12-30T08:11:18.339Z,1025.95
2018-12-30T08:12:18.381Z,1025.99
2018-12-30T08:13:18.326Z,1025.94
2018-12-30T08:14:18.305Z,1025.97
2018-12-30T08:15:18.327Z,1025.97
2018-12-30T08:16:18.317Z,1025.98
2018-12-30T08:17:18.284Z,1026.02
2018-12-30T08:18:18.266Z,1025.93
2018-12-30T08:19:18.298Z,1025.93
2018-12-30T08:20:18.238Z,1025.92
2018-12-30T08:21:18.232Z,1025.88
2018-12-30T08:22:18.249Z,1025.91
2018-12-30T08:23:21.501Z,1025.84
2018-12-30T08:24:18.196Z,1025.87
2018-12-30T08:25:18.196Z,1025.89
2018-12-30T08:26:18.178Z,1025.84
2018-12-30T08:27:18.242Z,1025.81
2018-12-30T08:28:25.078Z,1025.77
2018-12-30T08:29:19.151Z,1025.85
2018-12-30T08:30:25.711Z,1025.80
2018-12-30T08:31:25.677Z,1025.81
2018-12-30T08:32:26.716Z,1025.77
2018-12-30T08:33:26.684Z,1025.78
2018-12-30T08:34:25.648Z,1025.78
2018-12-30T08:35:25.676Z,1025.72
2018-12-30T08:36:25.619Z,1025.69
2018-12-30T08:37:18.052Z,1025.65
2018-12-30T08:38:25.633Z,1025.53
2018-12-30T08:39:28.879Z,1025.44
2018-12-30T08:40:25.772Z,1025.38
2018-12-30T08:41:25.592Z,1025.42
2018-12-30T08:42:25.592Z,1025.52
2018-12-30T08:43:25.542Z,1025.62
2018-12-30T08:44:28.051Z,1025.56
2018-12-30T08:45:29.111Z,1025.55
2018-12-30T08:46:25.528Z,1025.63
2018-12-30T08:47:25.501Z,1025.69
2018-12-30T08:48:25.488Z,1025.60
2018-12-30T08:49:26.791Z,1025.55
2018-12-30T08:50:26.823Z,1025.54
2018-12-30T08:51:25.461Z,1025.56
2018-12-30T08:52:25.463Z,1025.60
2018-12-30T08:53:29.337Z,1025.66
2018-12-30T08:54:25.418Z,1025.74
2018-12-30T08:55:25.429Z,1025.82
2018-12-30T08:56:27.527Z,1025.78
2018-12-30T08:57:17.824Z,1025.77
2018-12-30T08:58:17.813Z,1025.81
2018-12-30T09:00:36.577Z,1025.87
2018-12-30T09:01:45.586Z,1025.80
2018-12-30T09:02:44.102Z,1025.87
2018-12-30T09:03:36.514Z,1025.83
2018-12-30T09:04:36.500Z,1025.81
2018-12-30T09:05:36.508Z,1025.79
2018-12-30T09:06:36.487Z,1025.79
2018-12-30T09:07:36.480Z,1025.74
2018-12-30T09:08:36.454Z,1025.75
2018-12-30T09:09:36.458Z,1025.70
2018-12-30T09:10:36.434Z,1025.76
2018-12-30T09:11:36.420Z,1025.72
2018-12-30T09:12:36.428Z,1025.71
2018-12-30T09:13:36.404Z,1025.78
2018-12-30T09:14:36.388Z,1025.83
2018-12-30T09:15:36.417Z,1025.80
2018-12-30T09:16:36.372Z,1025.89
2018-12-30T09:17:36.356Z,1025.93
2018-12-30T09:18:36.396Z,1025.92
2018-12-30T09:19:36.335Z,1025.93
2018-12-30T09:20:36.320Z,1025.91
2018-12-30T09:21:36.328Z,1025.99
2018-12-30T09:22:36.302Z,1025.95
2018-12-30T09:23:37.558Z,1026.00
2018-12-30T09:24:36.273Z,1025.96
2018-12-30T09:25:36.283Z,1025.98
2018-12-30T09:26:36.253Z,1025.97
2018-12-30T09:27:36.245Z,1026.03
2018-12-30T09:28:36.276Z,1026.06
2018-12-30T09:29:36.235Z,1026.05
2018-12-30T09:30:36.210Z,1026.07
2018-12-30T09:31:36.199Z,1026.09
2018-12-30T09:32:36.187Z,1026.16
2018-12-30T09:33:36.175Z,1026.17
2018-12-30T09:34:36.191Z,1026.24
2018-12-30T09:35:36.168Z,1026.22
2018-12-30T09:36:36.144Z,1026.28
2018-12-30T09:37:36.138Z,1026.28
2018-12-30T09:38:36.118Z,1026.28
2018-12-30T09:39:36.109Z,1026.30
2018-12-30T09:40:36.096Z,1026.31
2018-12-30T09:41:36.101Z,1026.29
2018-12-30T09:42:36.075Z,1026.23
2018-12-30T09:43:36.106Z,1026.28
2018-12-30T09:44:36.059Z,1026.28
2018-12-30T09:45:36.043Z,1026.27
2018-12-30T09:46:36.048Z,1026.35
2018-12-30T09:47:36.032Z,1026.35
2018-12-30T09:48:36.004Z,1026.35
2018-12-30T09:49:35.993Z,1026.37
2018-12-30T09:50:36.020Z,1026.37
2018-12-30T09:51:35.974Z,1026.34
2018-12-30T09:52:35.968Z,1026.30
2018-12-30T09:53:35.966Z,1026.30
2018-12-30T09:54:35.939Z,1026.28
2018-12-30T09:55:35.930Z,1026.24
2018-12-30T09:56:35.919Z,1026.30
2018-12-30T09:57:35.932Z,1026.30
2018-12-30T09:58:35.910Z,1026.32
2018-12-30T09:59:35.883Z,1026.32
2018-12-30T10:00:35.874Z,1026.33
2018-12-30T10:01:35.861Z,1026.36
2018-12-30T10:02:35.850Z,1026.33
2018-12-30T10:03:35.857Z,1026.34
2018-12-30T10:04:35.837Z,1026.37
2018-12-30T10:05:35.822Z,1026.39
2018-12-30T10:06:35.805Z,1026.36
2018-12-30T10:07:35.791Z,1026.39
2018-12-30T10:08:35.788Z,1026.43
2018-12-30T10:09:35.790Z,1026.50
2018-12-30T10:10:35.804Z,1026.51
2018-12-30T10:11:35.745Z,1026.49
2018-12-30T10:12:35.740Z,1026.53
2018-12-30T10:13:35.724Z,1026.54
2018-12-30T10:14:35.772Z,1026.52
2018-12-30T10:15:35.719Z,1026.52
2018-12-30T10:16:35.706Z,1026.50
2018-12-30T10:17:35.679Z,1026.48
2018-12-30T10:18:35.669Z,1026.48
2018-12-30T10:19:35.658Z,1026.46
2018-12-30T10:20:35.678Z,1026.47
2018-12-30T10:21:35.635Z,1026.41
2018-12-30T10:22:35.621Z,1026.42
2018-12-30T10:23:35.657Z,1026.35
2018-12-30T10:24:35.606Z,1026.33
2018-12-30T10:25:35.591Z,1026.34
2018-12-30T10:26:35.603Z,1026.32
2018-12-30T10:27:35.571Z,1026.31
2018-12-30T10:28:35.559Z,1026.31
2018-12-30T10:29:35.570Z,1026.32
2018-12-30T10:30:35.533Z,1026.32
2018-12-30T10:31:35.526Z,1026.32
2018-12-30T10:32:35.531Z,1026.30
2018-12-30T10:33:35.503Z,1026.28
2018-12-30T10:34:35.491Z,1026.29
2018-12-30T10:35:35.483Z,1026.28
2018-12-30T10:36:35.488Z,1026.28
2018-12-30T10:37:35.477Z,1026.24
2018-12-30T10:38:35.446Z,1026.25
2018-12-30T10:39:35.432Z,1026.23
2018-12-30T10:40:35.427Z,1026.19
2018-12-30T10:41:35.412Z,1026.19
2018-12-30T10:42:35.403Z,1026.19
2018-12-30T10:43:35.432Z,1026.24
2018-12-30T10:44:35.378Z,1026.25
2018-12-30T10:45:35.366Z,1026.29
2018-12-30T10:46:35.355Z,1026.26
2018-12-30T10:47:35.344Z,1026.28
2018-12-30T10:48:36.275Z,1026.25
2018-12-30T10:49:35.386Z,1026.30
2018-12-30T10:50:35.307Z,1026.20
2018-12-30T10:51:35.299Z,1026.24
2018-12-30T10:52:35.297Z,1026.24
2018-12-30T10:53:35.286Z,1026.17
2018-12-30T10:54:35.267Z,1026.18
2018-12-30T10:55:35.323Z,1026.14
2018-12-30T10:56:35.240Z,1026.16
2018-12-30T10:57:35.235Z,1026.14
2018-12-30T10:58:35.222Z,1026.12
2018-12-30T10:59:35.209Z,1026.11
2018-12-30T11:00:35.198Z,1026.05
2018-12-30T11:01:35.208Z,1026.06
2018-12-30T11:02:35.184Z,1026.04
2018-12-30T11:03:35.165Z,1025.99
2018-12-30T11:04:35.192Z,1026.02
2018-12-30T11:05:35.153Z,1026.09
2018-12-30T11:06:35.132Z,1026.08
2018-12-30T11:07:35.140Z,1026.14
2018-12-30T11:08:35.107Z,1026.15
2018-12-30T11:09:35.116Z,1026.14
2018-12-30T11:10:35.088Z,1026.14
2018-12-30T11:11:35.078Z,1026.11
2018-12-30T11:12:35.063Z,1026.15
2018-12-30T11:13:35.064Z,1026.19
2018-12-30T11:14:35.051Z,1026.19
2018-12-30T11:15:35.031Z,1026.21
2018-12-30T11:16:35.050Z,1026.15
2018-12-30T11:17:35.009Z,1026.14
2018-12-30T11:18:34.995Z,1026.09
2018-12-30T11:19:35.002Z,1026.15
2018-12-30T11:20:34.974Z,1026.15
2018-12-30T11:21:34.968Z,1026.14
2018-12-30T11:22:34.988Z,1026.13
2018-12-30T11:23:34.953Z,1026.17
2018-12-30T11:24:34.929Z,1026.18
2018-12-30T11:25:34.934Z,1026.19
2018-12-30T11:26:34.907Z,1026.18
2018-12-30T11:27:34.928Z,1026.20
2018-12-30T11:28:34.882Z,1026.20
2018-12-30T11:29:34.884Z,1026.12
2018-12-30T11:30:34.881Z,1026.08
2018-12-30T11:31:34.865Z,1026.04
2018-12-30T11:32:34.836Z,1025.99
2018-12-30T11:33:34.828Z,1025.99
2018-12-30T11:34:34.817Z,1025.94
2018-12-30T11:35:34.804Z,1025.91
2018-12-30T11:36:34.820Z,1025.82
2018-12-30T11:37:34.798Z,1025.83
2018-12-30T11:38:34.774Z,1025.87
2018-12-30T11:39:34.787Z,1025.84
2018-12-30T11:40:34.747Z,1025.86
2018-12-30T11:41:34.777Z,1025.81
2018-12-30T11:42:34.733Z,1025.81
2018-12-30T11:43:34.730Z,1025.84
2018-12-30T11:44:34.721Z,1025.84
2018-12-30T11:45:34.697Z,1025.85
2018-12-30T11:46:34.678Z,1025.85
2018-12-30T11:47:34.670Z,1025.80
2018-12-30T11:48:34.671Z,1025.81
2018-12-30T11:49:34.646Z,1025.79
2018-12-30T11:50:34.648Z,1025.78
2018-12-30T11:51:34.626Z,1025.75
2018-12-30T11:52:34.614Z,1025.75
2018-12-30T11:53:34.599Z,1025.72
2018-12-30T11:54:34.611Z,1025.76
2018-12-30T11:55:34.577Z,1025.74
2018-12-30T11:56:34.591Z,1025.73
2018-12-30T11:57:34.556Z,1025.80
2018-12-30T11:58:34.557Z,1025.78
2018-12-30T11:59:34.534Z,1025.80
2018-12-30T12:00:34.542Z,1025.81
2018-12-30T12:01:34.515Z,1025.79
2018-12-30T12:02:34.500Z,1025.84
2018-12-30T12:03:34.516Z,1025.82
2018-12-30T12:04:34.500Z,1025.81
2018-12-30T12:05:34.466Z,1025.81
2018-12-30T12:06:34.947Z,1025.87